sensor_id;sensor_type;location;lat;lon;timestamp;P1;durP1;ratioP1;P2;durP2;ratioP2
37049;SDS011;22958;51.232;6.826;2023-09-07T00:01:49;14.77;;;6.90;;
37049;SDS011;22958;51.232;6.826;2023-09-07T00:04:17;14.95;;;6.93;;
37049;SDS011;22958;51.232;6.826;2023-09-07T00:06:43;16.25;;;6.43;;
37049;SDS011;22958;51.232;6.826;2023-09-07T00:09:09;14.07;;;7.17;;
37049;SDS011;22958;51.232;6.826;2023-09-07T00:11:36;16.05;;;6.80;;
37049;SDS011;22958;51.232;6.826;2023-09-07T00:14:02;14.50;;;6.85;;
37049;SDS011;22958;51.232;6.826;2023-09-07T00:16:28;15.32;;;6.45;;
37049;SDS011;22958;51.232;6.826;2023-09-07T00:18:59;15.13;;;7.10;;
37049;SDS011;22958;51.232;6.826;2023-09-07T00:21:24;12.37;;;6.70;;
37049;SDS011;22958;51.232;6.826;2023-09-07T00:23:50;12.00;;;6.60;;
37049;SDS011;22958;51.232;6.826;2023-09-07T00:26:15;14.73;;;6.67;;
37049;SDS011;22958;51.232;6.826;2023-09-07T00:28:41;29.43;;;7.70;;
37049;SDS011;22958;51.232;6.826;2023-09-07T00:31:06;19.43;;;6.90;;
37049;SDS011;22958;51.232;6.826;2023-09-07T00:33:32;19.13;;;7.20;;
37049;SDS011;22958;51.232;6.826;2023-09-07T00:35:58;16.03;;;7.13;;
37049;SDS011;22958;51.232;6.826;2023-09-07T00:38:23;12.37;;;7.43;;
37049;SDS011;22958;51.232;6.826;2023-09-07T00:40:49;12.73;;;6.43;;
37049;SDS011;22958;51.232;6.826;2023-09-07T00:43:14;17.60;;;7.20;;
37049;SDS011;22958;51.232;6.826;2023-09-07T00:45:40;16.97;;;6.87;;
37049;SDS011;22958;51.232;6.826;2023-09-07T00:48:06;13.18;;;6.70;;
37049;SDS011;22958;51.232;6.826;2023-09-07T00:50:32;15.10;;;7.55;;
37049;SDS011;22958;51.232;6.826;2023-09-07T00:52:57;21.00;;;6.80;;
37049;SDS011;22958;51.232;6.826;2023-09-07T00:55:25;12.95;;;6.97;;
37049;SDS011;22958;51.232;6.826;2023-09-07T00:57:52;13.05;;;6.57;;
37049;SDS011;22958;51.232;6.826;2023-09-07T01:00:18;13.60;;;6.97;;
37049;SDS011;22958;51.232;6.826;2023-09-07T01:02:43;15.37;;;6.87;;
37049;SDS011;22958;51.232;6.826;2023-09-07T01:05:10;11.48;;;6.40;;
37049;SDS011;22958;51.232;6.826;2023-09-07T01:07:46;11.07;;;6.25;;
37049;SDS011;22958;51.232;6.826;2023-09-07T01:10:15;13.63;;;6.15;;
37049;SDS011;22958;51.232;6.826;2023-09-07T01:12:41;14.97;;;6.70;;
37049;SDS011;22958;51.232;6.826;2023-09-07T01:15:07;14.07;;;7.07;;
37049;SDS011;22958;51.232;6.826;2023-09-07T01:17:33;15.63;;;6.10;;
37049;SDS011;22958;51.232;6.826;2023-09-07T01:19:59;12.30;;;6.63;;
37049;SDS011;22958;51.232;6.826;2023-09-07T01:22:34;11.32;;;6.90;;
37049;SDS011;22958;51.232;6.826;2023-09-07T01:27:27;9.52;;;6.18;;
37049;SDS011;22958;51.232;6.826;2023-09-07T01:29:52;12.40;;;6.23;;
37049;SDS011;22958;51.232;6.826;2023-09-07T01:32:18;9.80;;;6.13;;
37049;SDS011;22958;51.232;6.826;2023-09-07T01:34:45;10.03;;;6.20;;
37049;SDS011;22958;51.232;6.826;2023-09-07T01:39:36;13.10;;;6.28;;
37049;SDS011;22958;51.232;6.826;2023-09-07T01:42:01;14.20;;;6.10;;
37049;SDS011;22958;51.232;6.826;2023-09-07T01:44:27;11.90;;;6.43;;
37049;SDS011;22958;51.232;6.826;2023-09-07T01:46:54;11.10;;;6.70;;
37049;SDS011;22958;51.232;6.826;2023-09-07T01:49:20;17.57;;;6.80;;
37049;SDS011;22958;51.232;6.826;2023-09-07T01:51:45;15.73;;;7.37;;
37049;SDS011;22958;51.232;6.826;2023-09-07T01:54:11;13.13;;;6.67;;
37049;SDS011;22958;51.232;6.826;2023-09-07T01:56:36;11.73;;;6.97;;
37049;SDS011;22958;51.232;6.826;2023-09-07T01:59:02;12.97;;;6.63;;
37049;SDS011;22958;51.232;6.826;2023-09-07T02:01:29;16.37;;;6.67;;
37049;SDS011;22958;51.232;6.826;2023-09-07T02:03:56;10.52;;;6.00;;
37049;SDS011;22958;51.232;6.826;2023-09-07T02:06:22;12.80;;;6.00;;
37049;SDS011;22958;51.232;6.826;2023-09-07T02:08:48;8.80;;;6.00;;
37049;SDS011;22958;51.232;6.826;2023-09-07T02:11:14;9.65;;;5.93;;
37049;SDS011;22958;51.232;6.826;2023-09-07T02:13:43;13.00;;;6.65;;
37049;SDS011;22958;51.232;6.826;2023-09-07T02:16:12;11.85;;;6.25;;
37049;SDS011;22958;51.232;6.826;2023-09-07T02:18:37;10.30;;;6.03;;
37049;SDS011;22958;51.232;6.826;2023-09-07T02:21:05;8.38;;;5.75;;
37049;SDS011;22958;51.232;6.826;2023-09-07T02:23:33;17.05;;;6.70;;
37049;SDS011;22958;51.232;6.826;2023-09-07T02:26:00;9.88;;;5.65;;
37049;SDS011;22958;51.232;6.826;2023-09-07T02:28:25;13.13;;;5.80;;
37049;SDS011;22958;51.232;6.826;2023-09-07T02:30:52;13.23;;;6.72;;
37049;SDS011;22958;51.232;6.826;2023-09-07T02:33:17;10.00;;;5.57;;
37049;SDS011;22958;51.232;6.826;2023-09-07T02:35:43;12.63;;;6.17;;
37049;SDS011;22958;51.232;6.826;2023-09-07T02:38:09;12.07;;;5.57;;
37049;SDS011;22958;51.232;6.826;2023-09-07T02:40:42;15.73;;;7.23;;
37049;SDS011;22958;51.232;6.826;2023-09-07T02:43:08;16.02;;;5.80;;
37049;SDS011;22958;51.232;6.826;2023-09-07T02:45:34;11.32;;;5.68;;
37049;SDS011;22958;51.232;6.826;2023-09-07T02:48:00;17.87;;;5.70;;
37049;SDS011;22958;51.232;6.826;2023-09-07T02:50:25;16.23;;;5.60;;
37049;SDS011;22958;51.232;6.826;2023-09-07T02:52:53;19.25;;;5.95;;
37049;SDS011;22958;51.232;6.826;2023-09-07T02:55:18;13.13;;;6.23;;
37049;SDS011;22958;51.232;6.826;2023-09-07T02:57:44;12.27;;;6.27;;
37049;SDS011;22958;51.232;6.826;2023-09-07T03:00:09;12.70;;;5.80;;
37049;SDS011;22958;51.232;6.826;2023-09-07T03:02:36;13.73;;;6.35;;
37049;SDS011;22958;51.232;6.826;2023-09-07T03:05:02;13.97;;;5.60;;
37049;SDS011;22958;51.232;6.826;2023-09-07T03:07:30;14.10;;;6.10;;
37049;SDS011;22958;51.232;6.826;2023-09-07T03:09:58;14.07;;;6.45;;
37049;SDS011;22958;51.232;6.826;2023-09-07T03:12:24;14.30;;;5.80;;
37049;SDS011;22958;51.232;6.826;2023-09-07T03:14:49;10.50;;;6.20;;
37049;SDS011;22958;51.232;6.826;2023-09-07T03:17:18;15.30;;;6.32;;
37049;SDS011;22958;51.232;6.826;2023-09-07T03:19:45;10.60;;;6.32;;
37049;SDS011;22958;51.232;6.826;2023-09-07T03:22:11;12.77;;;6.33;;
37049;SDS011;22958;51.232;6.826;2023-09-07T03:24:37;13.20;;;6.30;;
37049;SDS011;22958;51.232;6.826;2023-09-07T03:27:03;13.13;;;6.63;;
37049;SDS011;22958;51.232;6.826;2023-09-07T03:29:29;16.80;;;5.90;;
37049;SDS011;22958;51.232;6.826;2023-09-07T03:31:55;12.37;;;6.07;;
37049;SDS011;22958;51.232;6.826;2023-09-07T03:34:21;11.33;;;6.37;;
37049;SDS011;22958;51.232;6.826;2023-09-07T03:36:46;10.37;;;5.70;;
37049;SDS011;22958;51.232;6.826;2023-09-07T03:39:12;15.40;;;5.60;;
37049;SDS011;22958;51.232;6.826;2023-09-07T03:41:37;10.20;;;6.50;;
37049;SDS011;22958;51.232;6.826;2023-09-07T03:44:03;9.73;;;5.03;;
37049;SDS011;22958;51.232;6.826;2023-09-07T03:46:28;15.73;;;5.30;;
37049;SDS011;22958;51.232;6.826;2023-09-07T03:48:54;11.93;;;5.10;;
37049;SDS011;22958;51.232;6.826;2023-09-07T03:51:19;10.93;;;5.87;;
37049;SDS011;22958;51.232;6.826;2023-09-07T03:53:45;11.93;;;5.40;;
37049;SDS011;22958;51.232;6.826;2023-09-07T03:56:10;12.33;;;5.67;;
37049;SDS011;22958;51.232;6.826;2023-09-07T03:58:36;13.03;;;6.20;;
37049;SDS011;22958;51.232;6.826;2023-09-07T04:01:02;10.13;;;6.00;;
37049;SDS011;22958;51.232;6.826;2023-09-07T04:03:27;12.17;;;6.03;;
37049;SDS011;22958;51.232;6.826;2023-09-07T04:05:53;19.77;;;6.77;;
37049;SDS011;22958;51.232;6.826;2023-09-07T04:08:18;12.53;;;6.70;;
37049;SDS011;22958;51.232;6.826;2023-09-07T04:10:44;15.60;;;7.00;;
37049;SDS011;22958;51.232;6.826;2023-09-07T04:13:09;8.83;;;6.07;;
37049;SDS011;22958;51.232;6.826;2023-09-07T04:15:41;13.20;;;6.17;;
37049;SDS011;22958;51.232;6.826;2023-09-07T04:18:10;11.98;;;6.00;;
37049;SDS011;22958;51.232;6.826;2023-09-07T04:20:37;13.25;;;5.65;;
37049;SDS011;22958;51.232;6.826;2023-09-07T04:23:04;9.98;;;6.07;;
37049;SDS011;22958;51.232;6.826;2023-09-07T04:25:30;14.73;;;6.13;;
37049;SDS011;22958;51.232;6.826;2023-09-07T04:27:56;13.05;;;6.38;;
37049;SDS011;22958;51.232;6.826;2023-09-07T04:30:22;15.70;;;6.03;;
37049;SDS011;22958;51.232;6.826;2023-09-07T04:32:48;15.57;;;6.17;;
37049;SDS011;22958;51.232;6.826;2023-09-07T04:35:14;12.57;;;5.50;;
37049;SDS011;22958;51.232;6.826;2023-09-07T04:37:41;10.30;;;5.80;;
37049;SDS011;22958;51.232;6.826;2023-09-07T04:40:08;14.85;;;6.40;;
37049;SDS011;22958;51.232;6.826;2023-09-07T04:42:34;16.33;;;6.80;;
37049;SDS011;22958;51.232;6.826;2023-09-07T04:45:00;9.87;;;6.30;;
37049;SDS011;22958;51.232;6.826;2023-09-07T04:47:26;11.53;;;7.13;;
37049;SDS011;22958;51.232;6.826;2023-09-07T04:49:51;10.20;;;5.73;;
37049;SDS011;22958;51.232;6.826;2023-09-07T04:52:17;11.27;;;5.77;;
37049;SDS011;22958;51.232;6.826;2023-09-07T04:54:43;14.30;;;6.27;;
37049;SDS011;22958;51.232;6.826;2023-09-07T04:57:09;9.73;;;5.90;;
37049;SDS011;22958;51.232;6.826;2023-09-07T04:59:34;15.87;;;6.80;;
37049;SDS011;22958;51.232;6.826;2023-09-07T05:02:00;13.47;;;5.93;;
37049;SDS011;22958;51.232;6.826;2023-09-07T05:04:26;12.60;;;6.50;;
37049;SDS011;22958;51.232;6.826;2023-09-07T05:06:52;13.82;;;5.78;;
37049;SDS011;22958;51.232;6.826;2023-09-07T05:09:18;8.97;;;6.10;;
37049;SDS011;22958;51.232;6.826;2023-09-07T05:14:10;10.38;;;5.95;;
37049;SDS011;22958;51.232;6.826;2023-09-07T05:16:36;10.90;;;5.93;;
37049;SDS011;22958;51.232;6.826;2023-09-07T05:19:01;11.77;;;6.17;;
37049;SDS011;22958;51.232;6.826;2023-09-07T05:21:27;14.27;;;6.43;;
37049;SDS011;22958;51.232;6.826;2023-09-07T05:23:52;14.70;;;6.43;;
37049;SDS011;22958;51.232;6.826;2023-09-07T05:26:21;9.20;;;5.37;;
37049;SDS011;22958;51.232;6.826;2023-09-07T05:28:49;10.15;;;5.50;;
37049;SDS011;22958;51.232;6.826;2023-09-07T05:31:15;9.27;;;5.53;;
37049;SDS011;22958;51.232;6.826;2023-09-07T05:33:40;10.00;;;5.87;;
37049;SDS011;22958;51.232;6.826;2023-09-07T05:36:06;11.13;;;6.37;;
37049;SDS011;22958;51.232;6.826;2023-09-07T05:38:31;14.03;;;6.33;;
37049;SDS011;22958;51.232;6.826;2023-09-07T05:40:57;12.80;;;6.50;;
37049;SDS011;22958;51.232;6.826;2023-09-07T05:43:22;14.57;;;5.90;;
37049;SDS011;22958;51.232;6.826;2023-09-07T05:45:48;11.03;;;5.93;;
37049;SDS011;22958;51.232;6.826;2023-09-07T05:48:14;16.48;;;6.78;;
37049;SDS011;22958;51.232;6.826;2023-09-07T05:50:43;16.73;;;6.65;;
37049;SDS011;22958;51.232;6.826;2023-09-07T05:53:09;13.85;;;6.22;;
37049;SDS011;22958;51.232;6.826;2023-09-07T05:55:34;15.10;;;6.37;;
37049;SDS011;22958;51.232;6.826;2023-09-07T05:58:03;15.30;;;6.73;;
37049;SDS011;22958;51.232;6.826;2023-09-07T06:00:30;13.90;;;6.30;;
37049;SDS011;22958;51.232;6.826;2023-09-07T06:02:55;10.43;;;5.73;;
37049;SDS011;22958;51.232;6.826;2023-09-07T06:05:21;16.23;;;7.53;;
37049;SDS011;22958;51.232;6.826;2023-09-07T06:07:46;15.00;;;6.50;;
37049;SDS011;22958;51.232;6.826;2023-09-07T06:10:12;16.03;;;6.57;;
37049;SDS011;22958;51.232;6.826;2023-09-07T06:12:38;14.30;;;6.20;;
37049;SDS011;22958;51.232;6.826;2023-09-07T06:15:03;12.27;;;6.97;;
37049;SDS011;22958;51.232;6.826;2023-09-07T06:17:29;12.68;;;5.78;;
37049;SDS011;22958;51.232;6.826;2023-09-07T06:19:55;11.70;;;6.17;;
37049;SDS011;22958;51.232;6.826;2023-09-07T06:22:21;16.38;;;6.53;;
37049;SDS011;22958;51.232;6.826;2023-09-07T06:24:46;15.97;;;7.27;;
37049;SDS011;22958;51.232;6.826;2023-09-07T06:27:12;16.80;;;6.27;;
37049;SDS011;22958;51.232;6.826;2023-09-07T06:29:38;15.40;;;6.50;;
37049;SDS011;22958;51.232;6.826;2023-09-07T06:32:03;15.13;;;6.93;;
37049;SDS011;22958;51.232;6.826;2023-09-07T06:34:29;17.60;;;8.33;;
37049;SDS011;22958;51.232;6.826;2023-09-07T06:36:54;22.70;;;7.43;;
37049;SDS011;22958;51.232;6.826;2023-09-07T06:39:20;17.53;;;7.20;;
37049;SDS011;22958;51.232;6.826;2023-09-07T06:41:46;14.87;;;6.37;;
37049;SDS011;22958;51.232;6.826;2023-09-07T06:44:12;16.35;;;6.93;;
37049;SDS011;22958;51.232;6.826;2023-09-07T06:46:37;23.67;;;7.53;;
37049;SDS011;22958;51.232;6.826;2023-09-07T06:49:03;19.20;;;6.80;;
37049;SDS011;22958;51.232;6.826;2023-09-07T06:51:30;16.57;;;7.33;;
37049;SDS011;22958;51.232;6.826;2023-09-07T06:53:56;18.90;;;6.90;;
37049;SDS011;22958;51.232;6.826;2023-09-07T06:56:22;17.87;;;6.77;;
37049;SDS011;22958;51.232;6.826;2023-09-07T06:58:47;21.88;;;7.53;;
37049;SDS011;22958;51.232;6.826;2023-09-07T07:01:13;20.83;;;6.87;;
37049;SDS011;22958;51.232;6.826;2023-09-07T07:03:39;17.43;;;7.50;;
37049;SDS011;22958;51.232;6.826;2023-09-07T07:06:04;15.60;;;6.70;;
37049;SDS011;22958;51.232;6.826;2023-09-07T07:08:30;18.23;;;7.30;;
37049;SDS011;22958;51.232;6.826;2023-09-07T07:10:55;16.73;;;7.37;;
37049;SDS011;22958;51.232;6.826;2023-09-07T07:13:21;16.70;;;7.40;;
37049;SDS011;22958;51.232;6.826;2023-09-07T07:15:46;17.93;;;6.43;;
37049;SDS011;22958;51.232;6.826;2023-09-07T07:18:12;10.67;;;5.60;;
37049;SDS011;22958;51.232;6.826;2023-09-07T07:20:38;13.30;;;6.27;;
37049;SDS011;22958;51.232;6.826;2023-09-07T07:25:31;14.60;;;5.90;;
37049;SDS011;22958;51.232;6.826;2023-09-07T07:27:58;22.65;;;6.50;;
37049;SDS011;22958;51.232;6.826;2023-09-07T07:30:34;15.30;;;5.80;;
37049;SDS011;22958;51.232;6.826;2023-09-07T07:33:03;12.48;;;6.32;;
37049;SDS011;22958;51.232;6.826;2023-09-07T07:35:30;15.10;;;5.75;;
37049;SDS011;22958;51.232;6.826;2023-09-07T07:37:56;13.18;;;6.10;;
37049;SDS011;22958;51.232;6.826;2023-09-07T07:40:21;7.68;;;5.13;;
37049;SDS011;22958;51.232;6.826;2023-09-07T07:42:47;9.13;;;5.80;;
37049;SDS011;22958;51.232;6.826;2023-09-07T07:45:13;12.43;;;4.88;;
37049;SDS011;22958;51.232;6.826;2023-09-07T07:47:40;10.05;;;4.97;;
37049;SDS011;22958;51.232;6.826;2023-09-07T07:50:06;18.73;;;5.05;;
37049;SDS011;22958;51.232;6.826;2023-09-07T07:52:32;10.05;;;4.68;;
37049;SDS011;22958;51.232;6.826;2023-09-07T07:54:57;14.80;;;4.87;;
37049;SDS011;22958;51.232;6.826;2023-09-07T07:57:23;8.10;;;4.43;;
37049;SDS011;22958;51.232;6.826;2023-09-07T07:59:48;9.07;;;4.70;;
37049;SDS011;22958;51.232;6.826;2023-09-07T08:02:14;8.07;;;4.17;;
37049;SDS011;22958;51.232;6.826;2023-09-07T08:04:41;9.17;;;4.13;;
37049;SDS011;22958;51.232;6.826;2023-09-07T08:07:06;11.75;;;4.40;;
37049;SDS011;22958;51.232;6.826;2023-09-07T08:09:33;11.35;;;4.30;;
37049;SDS011;22958;51.232;6.826;2023-09-07T08:11:59;9.65;;;4.32;;
37049;SDS011;22958;51.232;6.826;2023-09-07T08:14:28;6.68;;;4.35;;
37049;SDS011;22958;51.232;6.826;2023-09-07T08:16:54;7.82;;;4.20;;
37049;SDS011;22958;51.232;6.826;2023-09-07T08:19:21;10.15;;;4.32;;
37049;SDS011;22958;51.232;6.826;2023-09-07T08:21:47;6.93;;;3.90;;
37049;SDS011;22958;51.232;6.826;2023-09-07T08:24:12;10.23;;;4.60;;
37049;SDS011;22958;51.232;6.826;2023-09-07T08:26:38;6.83;;;4.20;;
37049;SDS011;22958;51.232;6.826;2023-09-07T08:29:04;11.07;;;4.13;;
37049;SDS011;22958;51.232;6.826;2023-09-07T08:31:33;6.72;;;3.97;;
37049;SDS011;22958;51.232;6.826;2023-09-07T08:34:06;8.75;;;4.10;;
37049;SDS011;22958;51.232;6.826;2023-09-07T08:36:36;11.75;;;4.32;;
37049;SDS011;22958;51.232;6.826;2023-09-07T08:39:02;5.85;;;4.15;;
37049;SDS011;22958;51.232;6.826;2023-09-07T08:41:35;10.88;;;4.40;;
37049;SDS011;22958;51.232;6.826;2023-09-07T08:44:06;8.07;;;4.20;;
37049;SDS011;22958;51.232;6.826;2023-09-07T08:46:33;5.65;;;3.55;;
37049;SDS011;22958;51.232;6.826;2023-09-07T08:48:59;6.85;;;4.15;;
37049;SDS011;22958;51.232;6.826;2023-09-07T08:51:29;8.70;;;4.45;;
37049;SDS011;22958;51.232;6.826;2023-09-07T08:53:56;8.90;;;4.22;;
37049;SDS011;22958;51.232;6.826;2023-09-07T08:56:22;6.80;;;4.30;;
37049;SDS011;22958;51.232;6.826;2023-09-07T08:58:49;8.45;;;4.10;;
37049;SDS011;22958;51.232;6.826;2023-09-07T09:01:14;6.90;;;4.23;;
37049;SDS011;22958;51.232;6.826;2023-09-07T09:03:43;7.55;;;4.30;;
37049;SDS011;22958;51.232;6.826;2023-09-07T09:06:11;8.02;;;4.25;;
37049;SDS011;22958;51.232;6.826;2023-09-07T09:11:09;9.27;;;3.80;;
37049;SDS011;22958;51.232;6.826;2023-09-07T09:13:35;6.45;;;3.95;;
37049;SDS011;22958;51.232;6.826;2023-09-07T09:16:01;12.23;;;4.15;;
37049;SDS011;22958;51.232;6.826;2023-09-07T09:18:27;9.00;;;4.20;;
37049;SDS011;22958;51.232;6.826;2023-09-07T09:23:19;9.00;;;4.45;;
37049;SDS011;22958;51.232;6.826;2023-09-07T09:25:47;7.20;;;4.00;;
37049;SDS011;22958;51.232;6.826;2023-09-07T09:28:13;12.63;;;3.85;;
37049;SDS011;22958;51.232;6.826;2023-09-07T09:30:38;7.57;;;4.33;;
37049;SDS011;22958;51.232;6.826;2023-09-07T09:33:04;9.15;;;4.18;;
37049;SDS011;22958;51.232;6.826;2023-09-07T09:35:30;7.18;;;4.22;;
37049;SDS011;22958;51.232;6.826;2023-09-07T09:38:00;6.90;;;4.30;;
37049;SDS011;22958;51.232;6.826;2023-09-07T09:40:33;7.75;;;4.55;;
37049;SDS011;22958;51.232;6.826;2023-09-07T09:43:02;6.50;;;4.28;;
37049;SDS011;22958;51.232;6.826;2023-09-07T09:45:28;6.13;;;4.05;;
37049;SDS011;22958;51.232;6.826;2023-09-07T09:47:54;8.52;;;3.78;;
37049;SDS011;22958;51.232;6.826;2023-09-07T09:50:25;13.25;;;4.00;;
37049;SDS011;22958;51.232;6.826;2023-09-07T09:52:52;9.75;;;3.65;;
37049;SDS011;22958;51.232;6.826;2023-09-07T09:55:20;7.30;;;3.80;;
37049;SDS011;22958;51.232;6.826;2023-09-07T10:00:13;7.80;;;4.63;;
37049;SDS011;22958;51.232;6.826;2023-09-07T10:02:42;9.75;;;4.07;;
37049;SDS011;22958;51.232;6.826;2023-09-07T10:05:10;10.60;;;4.30;;
37049;SDS011;22958;51.232;6.826;2023-09-07T10:10:09;8.80;;;4.13;;
37049;SDS011;22958;51.232;6.826;2023-09-07T10:12:41;12.98;;;4.07;;
37049;SDS011;22958;51.232;6.826;2023-09-07T10:15:19;9.40;;;4.13;;
37049;SDS011;22958;51.232;6.826;2023-09-07T10:17:48;6.07;;;3.75;;
37049;SDS011;22958;51.232;6.826;2023-09-07T10:20:18;10.40;;;4.10;;
37049;SDS011;22958;51.232;6.826;2023-09-07T10:22:46;12.15;;;4.47;;
37049;SDS011;22958;51.232;6.826;2023-09-07T10:25:21;9.43;;;4.40;;
37049;SDS011;22958;51.232;6.826;2023-09-07T10:27:47;9.40;;;3.80;;
37049;SDS011;22958;51.232;6.826;2023-09-07T10:32:44;6.97;;;3.80;;
37049;SDS011;22958;51.232;6.826;2023-09-07T10:35:13;13.65;;;4.47;;
37049;SDS011;22958;51.232;6.826;2023-09-07T10:37:44;6.63;;;3.83;;
37049;SDS011;22958;51.232;6.826;2023-09-07T10:40:23;9.77;;;4.30;;
37049;SDS011;22958;51.232;6.826;2023-09-07T10:43:00;6.30;;;3.47;;
37049;SDS011;22958;51.232;6.826;2023-09-07T10:45:26;9.60;;;3.85;;
37049;SDS011;22958;51.232;6.826;2023-09-07T10:50:18;8.82;;;4.13;;
37049;SDS011;22958;51.232;6.826;2023-09-07T10:52:44;7.80;;;4.20;;
37049;SDS011;22958;51.232;6.826;2023-09-07T10:55:10;7.80;;;4.00;;
37049;SDS011;22958;51.232;6.826;2023-09-07T10:57:45;7.18;;;3.95;;
37049;SDS011;22958;51.232;6.826;2023-09-07T11:00:12;15.60;;;4.20;;
37049;SDS011;22958;51.232;6.826;2023-09-07T11:02:39;6.20;;;3.83;;
37049;SDS011;22958;51.232;6.826;2023-09-07T11:05:06;8.80;;;3.80;;
37049;SDS011;22958;51.232;6.826;2023-09-07T11:07:32;5.95;;;3.72;;
37049;SDS011;22958;51.232;6.826;2023-09-07T11:09:58;6.97;;;3.80;;
37049;SDS011;22958;51.232;6.826;2023-09-07T11:14:50;5.57;;;3.63;;
37049;SDS011;22958;51.232;6.826;2023-09-07T11:17:17;5.30;;;3.75;;
37049;SDS011;22958;51.232;6.826;2023-09-07T11:19:43;7.65;;;3.67;;
37049;SDS011;22958;51.232;6.826;2023-09-07T11:22:12;7.85;;;3.25;;
37049;SDS011;22958;51.232;6.826;2023-09-07T11:24:38;5.80;;;3.95;;
37049;SDS011;22958;51.232;6.826;2023-09-07T11:27:04;4.65;;;3.33;;
37049;SDS011;22958;51.232;6.826;2023-09-07T11:29:33;6.72;;;3.30;;
37049;SDS011;22958;51.232;6.826;2023-09-07T11:32:08;6.13;;;3.47;;
37049;SDS011;22958;51.232;6.826;2023-09-07T11:34:35;8.05;;;3.13;;
37049;SDS011;22958;51.232;6.826;2023-09-07T11:37:02;6.80;;;3.17;;
37049;SDS011;22958;51.232;6.826;2023-09-07T11:39:28;4.05;;;2.67;;
37049;SDS011;22958;51.232;6.826;2023-09-07T11:41:54;5.18;;;3.25;;
37049;SDS011;22958;51.232;6.826;2023-09-07T11:44:19;6.32;;;3.20;;
37049;SDS011;22958;51.232;6.826;2023-09-07T11:46:45;5.70;;;2.75;;
37049;SDS011;22958;51.232;6.826;2023-09-07T11:49:11;4.78;;;2.95;;
37049;SDS011;22958;51.232;6.826;2023-09-07T11:51:37;7.85;;;3.33;;
37049;SDS011;22958;51.232;6.826;2023-09-07T11:54:02;4.88;;;3.20;;
37049;SDS011;22958;51.232;6.826;2023-09-07T11:56:29;4.50;;;3.13;;
37049;SDS011;22958;51.232;6.826;2023-09-07T11:58:55;4.32;;;2.58;;
37049;SDS011;22958;51.232;6.826;2023-09-07T12:01:21;7.28;;;2.90;;
37049;SDS011;22958;51.232;6.826;2023-09-07T12:03:46;5.65;;;2.88;;
37049;SDS011;22958;51.232;6.826;2023-09-07T12:06:12;5.60;;;3.03;;
37049;SDS011;22958;51.232;6.826;2023-09-07T12:08:41;4.07;;;2.97;;
37049;SDS011;22958;51.232;6.826;2023-09-07T12:11:07;3.83;;;3.03;;
37049;SDS011;22958;51.232;6.826;2023-09-07T12:13:33;7.57;;;2.83;;
37049;SDS011;22958;51.232;6.826;2023-09-07T12:15:58;7.05;;;3.08;;
37049;SDS011;22958;51.232;6.826;2023-09-07T12:18:24;4.38;;;3.00;;
37049;SDS011;22958;51.232;6.826;2023-09-07T12:20:49;5.03;;;3.20;;
37049;SDS011;22958;51.232;6.826;2023-09-07T12:23:15;4.80;;;3.10;;
37049;SDS011;22958;51.232;6.826;2023-09-07T12:25:40;9.23;;;2.85;;
37049;SDS011;22958;51.232;6.826;2023-09-07T12:28:06;5.93;;;3.13;;
37049;SDS011;22958;51.232;6.826;2023-09-07T12:30:31;7.30;;;3.22;;
37049;SDS011;22958;51.232;6.826;2023-09-07T12:32:57;8.05;;;3.47;;
37049;SDS011;22958;51.232;6.826;2023-09-07T12:35:22;7.97;;;3.67;;
37049;SDS011;22958;51.232;6.826;2023-09-07T12:37:48;3.95;;;3.35;;
37049;SDS011;22958;51.232;6.826;2023-09-07T12:40:14;10.98;;;3.42;;
37049;SDS011;22958;51.232;6.826;2023-09-07T12:42:40;13.85;;;3.80;;
37049;SDS011;22958;51.232;6.826;2023-09-07T12:45:07;5.85;;;3.75;;
37049;SDS011;22958;51.232;6.826;2023-09-07T12:47:34;4.45;;;3.15;;
37049;SDS011;22958;51.232;6.826;2023-09-07T12:50:00;7.10;;;3.60;;
37049;SDS011;22958;51.232;6.826;2023-09-07T12:52:25;8.40;;;3.55;;
37049;SDS011;22958;51.232;6.826;2023-09-07T12:54:51;6.47;;;3.28;;
37049;SDS011;22958;51.232;6.826;2023-09-07T12:57:16;3.78;;;3.20;;
37049;SDS011;22958;51.232;6.826;2023-09-07T12:59:42;3.95;;;3.03;;
37049;SDS011;22958;51.232;6.826;2023-09-07T13:02:07;6.03;;;3.20;;
37049;SDS011;22958;51.232;6.826;2023-09-07T13:04:33;6.10;;;3.63;;
37049;SDS011;22958;51.232;6.826;2023-09-07T13:06:58;4.72;;;3.05;;
37049;SDS011;22958;51.232;6.826;2023-09-07T13:09:26;5.55;;;3.50;;
37049;SDS011;22958;51.232;6.826;2023-09-07T13:11:51;4.88;;;3.42;;
37049;SDS011;22958;51.232;6.826;2023-09-07T13:14:16;4.85;;;3.55;;
37049;SDS011;22958;51.232;6.826;2023-09-07T13:16:42;4.20;;;3.17;;
37049;SDS011;22958;51.232;6.826;2023-09-07T13:19:09;8.75;;;3.40;;
37049;SDS011;22958;51.232;6.826;2023-09-07T13:21:36;6.25;;;3.55;;
37049;SDS011;22958;51.232;6.826;2023-09-07T13:24:02;8.60;;;3.95;;
37049;SDS011;22958;51.232;6.826;2023-09-07T13:26:28;5.22;;;3.60;;
37049;SDS011;22958;51.232;6.826;2023-09-07T13:28:53;6.55;;;3.90;;
37049;SDS011;22958;51.232;6.826;2023-09-07T13:31:19;9.10;;;3.88;;
37049;SDS011;22958;51.232;6.826;2023-09-07T13:33:44;7.85;;;3.92;;
37049;SDS011;22958;51.232;6.826;2023-09-07T13:36:10;6.38;;;3.42;;
37049;SDS011;22958;51.232;6.826;2023-09-07T13:38:36;6.75;;;3.58;;
37049;SDS011;22958;51.232;6.826;2023-09-07T13:41:01;5.97;;;3.60;;
37049;SDS011;22958;51.232;6.826;2023-09-07T13:43:27;7.70;;;3.60;;
37049;SDS011;22958;51.232;6.826;2023-09-07T13:45:52;8.32;;;3.80;;
37049;SDS011;22958;51.232;6.826;2023-09-07T13:48:18;4.13;;;3.33;;
37049;SDS011;22958;51.232;6.826;2023-09-07T13:50:43;4.53;;;3.60;;
37049;SDS011;22958;51.232;6.826;2023-09-07T13:53:09;8.27;;;3.65;;
37049;SDS011;22958;51.232;6.826;2023-09-07T13:55:35;8.75;;;3.85;;
37049;SDS011;22958;51.232;6.826;2023-09-07T13:58:00;14.13;;;4.60;;
37049;SDS011;22958;51.232;6.826;2023-09-07T14:00:26;5.35;;;3.45;;
37049;SDS011;22958;51.232;6.826;2023-09-07T14:02:52;4.82;;;3.83;;
37049;SDS011;22958;51.232;6.826;2023-09-07T14:05:18;6.90;;;3.47;;
37049;SDS011;22958;51.232;6.826;2023-09-07T14:07:43;8.45;;;3.90;;
37049;SDS011;22958;51.232;6.826;2023-09-07T14:10:09;8.57;;;3.75;;
37049;SDS011;22958;51.232;6.826;2023-09-07T14:12:34;7.20;;;3.75;;
37049;SDS011;22958;51.232;6.826;2023-09-07T14:15:00;7.18;;;3.45;;
37049;SDS011;22958;51.232;6.826;2023-09-07T14:17:25;5.53;;;4.13;;
37049;SDS011;22958;51.232;6.826;2023-09-07T14:19:51;10.73;;;3.75;;
37049;SDS011;22958;51.232;6.826;2023-09-07T14:22:17;5.32;;;3.75;;
37049;SDS011;22958;51.232;6.826;2023-09-07T14:24:42;7.15;;;3.80;;
37049;SDS011;22958;51.232;6.826;2023-09-07T14:27:07;5.68;;;3.60;;
37049;SDS011;22958;51.232;6.826;2023-09-07T14:29:34;6.20;;;4.30;;
37049;SDS011;22958;51.232;6.826;2023-09-07T14:32:00;5.22;;;3.58;;
37049;SDS011;22958;51.232;6.826;2023-09-07T14:34:26;10.68;;;4.00;;
37049;SDS011;22958;51.232;6.826;2023-09-07T14:36:51;9.60;;;3.70;;
37049;SDS011;22958;51.232;6.826;2023-09-07T14:39:17;4.65;;;3.75;;
37049;SDS011;22958;51.232;6.826;2023-09-07T14:41:48;5.07;;;3.58;;
37049;SDS011;22958;51.232;6.826;2023-09-07T14:44:14;7.13;;;3.40;;
37049;SDS011;22958;51.232;6.826;2023-09-07T14:46:39;7.53;;;3.92;;
37049;SDS011;22958;51.232;6.826;2023-09-07T14:49:05;7.80;;;4.38;;
37049;SDS011;22958;51.232;6.826;2023-09-07T14:51:31;16.65;;;4.38;;
37049;SDS011;22958;51.232;6.826;2023-09-07T14:53:56;4.95;;;3.92;;
37049;SDS011;22958;51.232;6.826;2023-09-07T14:56:22;6.75;;;3.55;;
37049;SDS011;22958;51.232;6.826;2023-09-07T14:58:47;7.30;;;4.03;;
37049;SDS011;22958;51.232;6.826;2023-09-07T15:01:13;4.97;;;4.05;;
37049;SDS011;22958;51.232;6.826;2023-09-07T15:03:38;4.45;;;3.83;;